createdAt,value
2022-10-24T00:02:23.794Z,14.67
2022-10-24T00:04:50.321Z,19.17
2022-10-24T00:07:16.837Z,19.63
2022-10-24T00:09:43.368Z,16.07
2022-10-24T00:12:09.998Z,15.80
2022-10-24T00:14:36.772Z,18.93
2022-10-24T00:17:04.208Z,19.47
2022-10-24T00:19:30.712Z,19.60
2022-10-24T00:21:57.160Z,19.10
2022-10-24T00:24:25.148Z,17.33
2022-10-24T00:26:52.210Z,17.50
2022-10-24T00:29:18.824Z,17.30
2022-10-24T00:31:45.390Z,15.73
2022-10-24T00:34:11.881Z,16.17
2022-10-24T00:36:38.769Z,13.23
2022-10-24T00:39:05.228Z,17.33
2022-10-24T00:41:38.083Z,19.83
2022-10-24T00:44:17.727Z,20.37
2022-10-24T00:46:50.023Z,21.10
2022-10-24T00:49:21.268Z,16.87
2022-10-24T00:51:51.018Z,19.60
2022-10-24T00:54:17.964Z,17.10
2022-10-24T00:56:55.243Z,16.23
2022-10-24T00:59:22.306Z,17.60
2022-10-24T01:01:49.139Z,27.60
2022-10-24T01:04:15.891Z,14.23
2022-10-24T01:06:47.931Z,13.10
2022-10-24T01:09:14.325Z,13.07
2022-10-24T01:11:56.715Z,12.47
2022-10-24T01:14:37.961Z,15.23
2022-10-24T01:17:09.577Z,19.23
2022-10-24T01:19:38.712Z,17.23
2022-10-24T01:22:22.662Z,15.33
2022-10-24T01:24:51.871Z,16.03
2022-10-24T01:27:33.640Z,18.33
2022-10-24T01:30:13.324Z,13.23
2022-10-24T01:33:44.789Z,17.30
2022-10-24T01:36:18.329Z,22.13
2022-10-24T01:38:50.487Z,22.23
2022-10-24T01:41:21.119Z,14.67
2022-10-24T01:46:29.781Z,15.00
2022-10-24T01:49:09.520Z,16.57
2022-10-24T01:51:38.550Z,22.00
2022-10-24T01:54:07.116Z,14.43
2022-10-24T01:56:33.705Z,18.37
2022-10-24T01:59:29.397Z,18.23
2022-10-24T02:02:08.385Z,17.20
2022-10-24T02:04:41.013Z,10.47
2022-10-24T02:07:10.265Z,12.97
2022-10-24T02:09:38.968Z,13.93
2022-10-24T02:12:09.346Z,17.10
2022-10-24T02:14:46.165Z,18.23
2022-10-24T02:17:12.816Z,17.70
2022-10-24T02:19:39.337Z,18.67
2022-10-24T02:22:23.556Z,15.53
2022-10-24T02:24:55.858Z,18.80
2022-10-24T02:27:28.590Z,20.70
2022-10-24T02:30:06.562Z,19.00
2022-10-24T02:32:38.329Z,17.60
2022-10-24T02:35:06.701Z,14.90
2022-10-24T02:37:39.822Z,13.57
2022-10-24T02:40:08.765Z,23.37
2022-10-24T02:42:36.807Z,17.80
2022-10-24T02:45:04.006Z,17.97
2022-10-24T02:47:32.539Z,15.83
2022-10-24T02:49:59.060Z,24.67
2022-10-24T02:52:26.249Z,17.03
2022-10-24T02:54:52.745Z,14.27
2022-10-24T02:57:21.405Z,22.77
2022-10-24T02:59:47.838Z,21.33
2022-10-24T03:02:14.332Z,22.23
2022-10-24T03:04:40.805Z,23.47
2022-10-24T03:07:07.598Z,19.27
2022-10-24T03:09:34.708Z,20.60
2022-10-24T03:12:01.291Z,23.47
2022-10-24T03:14:27.905Z,18.47
2022-10-24T03:16:54.352Z,16.37
2022-10-24T03:19:20.879Z,21.67
2022-10-24T03:21:47.369Z,22.47
2022-10-24T03:24:15.170Z,23.37
2022-10-24T03:26:52.098Z,14.93
2022-10-24T03:29:19.282Z,17.63
2022-10-24T03:31:46.148Z,18.53
2022-10-24T03:34:12.682Z,24.17
2022-10-24T03:36:39.249Z,16.33
2022-10-24T03:39:05.785Z,18.33
2022-10-24T03:41:32.303Z,11.73
2022-10-24T03:43:58.781Z,21.73
2022-10-24T03:46:25.336Z,17.83
2022-10-24T03:48:51.891Z,16.83
2022-10-24T03:51:18.391Z,16.97
2022-10-24T03:53:44.921Z,18.33
2022-10-24T03:56:11.522Z,24.60
2022-10-24T03:58:38.013Z,14.03
2022-10-24T04:01:04.669Z,17.87
2022-10-24T04:03:31.259Z,19.30
2022-10-24T04:05:57.702Z,20.70
2022-10-24T04:08:24.242Z,20.33
2022-10-24T04:10:50.811Z,17.93
2022-10-24T04:13:17.330Z,16.57
2022-10-24T04:15:43.825Z,16.10
2022-10-24T04:18:10.386Z,21.40
2022-10-24T04:20:36.954Z,17.33
2022-10-24T04:23:04.574Z,20.43
2022-10-24T04:25:31.247Z,18.03
2022-10-24T04:27:57.693Z,17.70
2022-10-24T04:30:24.199Z,17.67
2022-10-24T04:32:50.643Z,23.20
2022-10-24T04:35:17.329Z,13.83
2022-10-24T04:37:43.778Z,18.03
2022-10-24T04:40:10.695Z,22.43
2022-10-24T04:42:37.470Z,20.97
2022-10-24T04:45:04.199Z,20.67
2022-10-24T04:47:30.645Z,18.50
2022-10-24T04:49:57.202Z,20.93
2022-10-24T04:52:23.706Z,22.30
2022-10-24T04:54:50.186Z,18.50
2022-10-24T04:57:16.669Z,14.67
2022-10-24T04:59:43.165Z,19.87
2022-10-24T05:02:09.670Z,18.60
2022-10-24T05:04:36.177Z,17.57
2022-10-24T05:07:02.774Z,18.43
2022-10-24T05:09:29.246Z,18.60
2022-10-24T05:11:56.498Z,17.83
2022-10-24T05:14:23.593Z,13.27
2022-10-24T05:16:50.286Z,11.73
2022-10-24T05:19:17.385Z,14.53
2022-10-24T05:21:43.817Z,14.03
2022-10-24T05:24:10.392Z,19.23
2022-10-24T05:26:36.921Z,14.97
2022-10-24T05:29:03.676Z,13.97
2022-10-24T05:34:01.706Z,17.53
2022-10-24T05:36:28.149Z,16.13
2022-10-24T05:38:54.614Z,12.77
2022-10-24T05:41:21.073Z,15.73
2022-10-24T05:43:47.592Z,15.17
2022-10-24T05:46:14.044Z,16.80
2022-10-24T05:48:40.558Z,13.80
2022-10-24T05:51:07.080Z,14.90
2022-10-24T05:53:33.584Z,12.43
2022-10-24T05:56:00.059Z,9.27
2022-10-24T05:58:27.455Z,11.90
2022-10-24T06:00:54.361Z,10.87
2022-10-24T06:03:21.579Z,14.33
2022-10-24T06:05:48.547Z,15.50
2022-10-24T06:08:15.012Z,14.63
2022-10-24T06:10:41.607Z,13.87
2022-10-24T06:13:08.226Z,17.10
2022-10-24T06:15:34.712Z,11.27
2022-10-24T06:18:01.181Z,15.13
2022-10-24T06:20:27.807Z,12.97
2022-10-24T06:22:54.295Z,14.50
2022-10-24T06:25:20.785Z,14.43
2022-10-24T06:27:48.482Z,10.87
2022-10-24T06:30:15.220Z,13.40
2022-10-24T06:32:44.406Z,16.53
2022-10-24T06:35:13.457Z,11.23
2022-10-24T06:37:42.870Z,11.70
2022-10-24T06:40:12.613Z,11.27
2022-10-24T06:42:39.114Z,17.10
2022-10-24T06:45:06.358Z,12.73
2022-10-24T06:47:32.930Z,17.17
2022-10-24T06:49:59.394Z,19.30
2022-10-24T06:52:25.889Z,16.07
2022-10-24T06:54:52.374Z,16.40
2022-10-24T06:57:18.857Z,14.27
2022-10-24T06:59:45.547Z,19.60
2022-10-24T07:02:16.560Z,16.47
2022-10-24T07:04:43.356Z,14.30
2022-10-24T07:07:16.029Z,14.73
2022-10-24T07:09:42.610Z,18.83
2022-10-24T07:12:09.488Z,16.07
2022-10-24T07:14:36.236Z,12.40
2022-10-24T07:17:04.404Z,16.80
2022-10-24T07:19:33.878Z,20.83
2022-10-24T07:22:03.160Z,15.50
2022-10-24T07:24:29.661Z,18.33
2022-10-24T07:26:56.145Z,19.63
2022-10-24T07:29:22.609Z,15.60
2022-10-24T07:31:49.144Z,16.17
2022-10-24T07:34:16.356Z,17.23
2022-10-24T07:36:43.911Z,17.37
2022-10-24T07:39:11.578Z,15.47
2022-10-24T07:41:41.242Z,17.80
2022-10-24T07:44:08.211Z,18.50
2022-10-24T07:46:34.909Z,16.40
2022-10-24T07:49:01.420Z,15.20
2022-10-24T07:51:29.668Z,13.80
2022-10-24T07:53:59.610Z,15.97
2022-10-24T07:56:26.323Z,10.03
2022-10-24T07:58:52.910Z,16.73
2022-10-24T08:01:22.127Z,11.17
2022-10-24T08:03:49.288Z,11.80
2022-10-24T08:06:19.434Z,12.77
2022-10-24T08:08:46.177Z,11.47
2022-10-24T08:11:21.978Z,9.87
2022-10-24T08:13:49.761Z,9.33
2022-10-24T08:16:18.345Z,11.37
2022-10-24T08:18:45.016Z,9.03
2022-10-24T08:21:14.143Z,12.30
2022-10-24T08:23:44.086Z,8.63
2022-10-24T08:26:13.783Z,12.93
2022-10-24T08:28:41.247Z,11.40
2022-10-24T08:31:11.767Z,8.50
2022-10-24T08:33:38.922Z,6.53
2022-10-24T08:36:13.424Z,10.00
2022-10-24T08:38:40.051Z,8.20
2022-10-24T08:41:06.979Z,7.10
2022-10-24T08:43:33.718Z,7.67
2022-10-24T08:46:28.371Z,9.83
2022-10-24T08:49:08.975Z,6.17
2022-10-24T08:51:43.840Z,8.33
2022-10-24T08:54:14.696Z,7.27
2022-10-24T08:56:41.641Z,8.67
2022-10-24T08:59:12.304Z,6.43
2022-10-24T09:01:50.622Z,6.20
2022-10-24T09:04:21.901Z,9.17
2022-10-24T09:06:51.780Z,5.10
2022-10-24T09:09:18.720Z,9.20
2022-10-24T09:11:48.344Z,6.13
2022-10-24T09:14:18.010Z,4.30
2022-10-24T09:16:49.504Z,7.33
2022-10-24T09:19:20.867Z,5.07
2022-10-24T09:21:48.405Z,8.33
2022-10-24T09:24:27.109Z,6.93
2022-10-24T09:26:53.944Z,6.77
2022-10-24T09:29:20.508Z,6.20
2022-10-24T09:31:49.441Z,6.00
2022-10-24T09:34:17.464Z,4.73
2022-10-24T09:36:44.743Z,7.17
2022-10-24T09:39:23.630Z,8.07
2022-10-24T09:41:50.474Z,6.67
2022-10-24T09:44:49.520Z,4.60
2022-10-24T09:47:27.884Z,5.93
2022-10-24T09:49:55.064Z,4.47
2022-10-24T09:52:24.643Z,6.83
2022-10-24T09:55:17.884Z,5.53
2022-10-24T09:57:45.309Z,4.43
2022-10-24T10:00:32.911Z,4.20
2022-10-24T10:03:02.501Z,5.20
2022-10-24T10:05:44.293Z,8.97
2022-10-24T10:08:18.823Z,4.07
2022-10-24T10:10:56.595Z,8.00
2022-10-24T10:13:25.304Z,4.13
2022-10-24T10:16:04.007Z,4.67
2022-10-24T10:18:39.633Z,5.50
2022-10-24T10:21:25.165Z,7.23
2022-10-24T10:23:56.897Z,3.70
2022-10-24T10:26:24.994Z,6.43
2022-10-24T10:29:06.841Z,4.50
2022-10-24T10:31:43.971Z,4.47
2022-10-24T10:34:30.974Z,6.97
2022-10-24T10:37:18.938Z,4.90
2022-10-24T10:40:08.344Z,3.93
2022-10-24T10:42:41.930Z,3.53
2022-10-24T10:45:22.225Z,5.00
2022-10-24T10:48:07.505Z,5.43
2022-10-24T10:50:48.334Z,3.20
2022-10-24T10:53:40.358Z,3.17
2022-10-24T10:56:15.692Z,4.17
2022-10-24T10:58:52.095Z,4.70
2022-10-24T11:01:27.982Z,5.33
2022-10-24T11:04:21.014Z,4.33
2022-10-24T11:07:14.954Z,5.33
2022-10-24T11:09:46.771Z,3.47
2022-10-24T11:12:19.314Z,3.70
2022-10-24T11:15:00.686Z,5.40
2022-10-24T11:17:32.373Z,3.90
2022-10-24T11:20:07.449Z,5.43
2022-10-24T11:22:50.898Z,3.63
2022-10-24T11:26:02.450Z,5.10
2022-10-24T11:28:44.617Z,3.57
2022-10-24T11:31:18.705Z,5.23
2022-10-24T11:34:00.517Z,2.53
2022-10-24T11:37:06.061Z,1.87
2022-10-24T11:39:35.585Z,3.50
2022-10-24T11:42:12.665Z,3.63
2022-10-24T11:45:01.141Z,2.17
2022-10-24T11:47:27.595Z,3.47
2022-10-24T11:50:00.987Z,2.23
2022-10-24T11:52:30.916Z,1.00
2022-10-24T11:55:13.308Z,5.20
2022-10-24T11:57:45.381Z,4.67
2022-10-24T12:00:48.325Z,4.13
2022-10-24T12:03:24.762Z,4.33
2022-10-24T12:06:20.226Z,3.43
2022-10-24T12:09:05.494Z,2.40
2022-10-24T12:11:53.986Z,2.17
2022-10-24T12:14:29.760Z,4.27
2022-10-24T12:17:18.958Z,4.00
2022-10-24T12:19:46.588Z,7.43
2022-10-24T12:22:23.631Z,3.13
2022-10-24T12:25:03.955Z,4.53
2022-10-24T12:27:35.652Z,6.13
2022-10-24T12:30:21.764Z,4.87
2022-10-24T12:32:52.338Z,4.07
2022-10-24T12:35:31.711Z,5.10
2022-10-24T12:37:58.873Z,3.07
2022-10-24T12:40:52.124Z,2.73
2022-10-24T12:43:36.488Z,3.70
2022-10-24T12:46:18.852Z,4.07
2022-10-24T12:48:58.403Z,4.03
2022-10-24T12:51:40.642Z,2.03
2022-10-24T12:54:13.316Z,5.33
2022-10-24T12:57:09.396Z,3.70
2022-10-24T12:59:51.450Z,3.20
2022-10-24T13:02:21.123Z,3.10
2022-10-24T13:05:07.964Z,3.83
2022-10-24T13:07:47.119Z,2.23
2022-10-24T13:10:37.624Z,3.47
2022-10-24T13:13:29.020Z,2.97
2022-10-24T13:16:10.922Z,2.70
2022-10-24T13:19:17.142Z,2.00
2022-10-24T13:21:47.594Z,1.87
2022-10-24T13:24:16.841Z,1.87
2022-10-24T13:26:58.420Z,2.37
2022-10-24T13:29:27.968Z,4.07
2022-10-24T13:32:16.318Z,3.23
2022-10-24T13:34:54.718Z,1.73
2022-10-24T13:37:34.946Z,1.63
2022-10-24T13:40:33.758Z,0.80
2022-10-24T13:43:07.542Z,1.60
2022-10-24T13:46:00.177Z,2.53
2022-10-24T13:48:34.819Z,2.20
2022-10-24T13:51:20.213Z,1.43
2022-10-24T13:53:58.963Z,1.67
2022-10-24T13:56:26.488Z,2.77
2022-10-24T13:58:53.117Z,2.47
2022-10-24T14:01:27.329Z,3.90
2022-10-24T14:03:55.405Z,2.97
2022-10-24T14:06:27.580Z,1.93
2022-10-24T14:09:06.736Z,3.93
2022-10-24T14:11:52.855Z,1.27
2022-10-24T14:15:27.183Z,1.70
2022-10-24T14:18:54.804Z,1.57
2022-10-24T14:25:30.844Z,1.43
2022-10-24T14:28:32.159Z,2.67
2022-10-24T14:31:05.498Z,3.27
2022-10-24T14:33:42.065Z,1.23
2022-10-24T14:36:09.495Z,2.33
2022-10-24T14:38:36.473Z,1.40
2022-10-24T14:41:10.431Z,3.97
2022-10-24T14:43:42.194Z,2.97
2022-10-24T14:46:12.264Z,1.70
2022-10-24T14:48:41.968Z,3.57
2022-10-24T14:51:20.937Z,2.50
2022-10-24T14:53:50.129Z,2.97
2022-10-24T14:56:36.812Z,5.27
2022-10-24T14:59:07.189Z,3.87
2022-10-24T15:01:34.057Z,1.83
2022-10-24T15:04:03.584Z,4.03
2022-10-24T15:06:38.230Z,3.30
2022-10-24T15:09:10.914Z,2.23
2022-10-24T15:12:03.271Z,2.67
2022-10-24T15:14:41.340Z,2.27
2022-10-24T15:17:17.099Z,3.70
2022-10-24T15:19:46.095Z,3.03
2022-10-24T15:22:30.195Z,4.47
2022-10-24T15:25:00.133Z,2.60
2022-10-24T15:27:30.551Z,3.43
2022-10-24T15:29:57.307Z,4.37
2022-10-24T15:32:24.368Z,4.80
2022-10-24T15:34:54.350Z,3.10
2022-10-24T15:37:24.310Z,3.00
2022-10-24T15:39:52.890Z,2.53
2022-10-24T15:42:22.554Z,2.87
2022-10-24T15:44:49.412Z,3.70
2022-10-24T15:47:16.019Z,4.33
2022-10-24T15:49:42.650Z,2.47
2022-10-24T15:52:15.515Z,3.60
2022-10-24T15:54:42.284Z,4.97
2022-10-24T15:57:13.147Z,4.93
2022-10-24T15:59:39.949Z,4.90
2022-10-24T16:02:16.291Z,2.47
2022-10-24T16:04:42.977Z,2.80
2022-10-24T16:07:10.590Z,6.77
2022-10-24T16:09:37.240Z,3.67
2022-10-24T16:12:04.335Z,4.37
2022-10-24T16:14:30.966Z,3.37
2022-10-24T16:16:58.469Z,2.27
2022-10-24T16:19:28.966Z,5.00
2022-10-24T16:21:59.590Z,3.70
2022-10-24T16:24:27.229Z,2.77
2022-10-24T16:26:54.147Z,4.27
2022-10-24T16:29:20.822Z,2.77
2022-10-24T16:31:49.028Z,4.73
2022-10-24T16:34:15.586Z,3.70
2022-10-24T16:36:42.262Z,4.30
2022-10-24T16:39:09.254Z,2.97
2022-10-24T16:41:35.963Z,3.57
2022-10-24T16:44:03.723Z,4.53
2022-10-24T16:46:30.684Z,5.27
2022-10-24T16:48:58.255Z,4.03
2022-10-24T16:51:32.418Z,2.17
2022-10-24T16:54:01.142Z,5.73
2022-10-24T16:56:28.106Z,4.17
2022-10-24T16:58:54.630Z,3.03
2022-10-24T17:01:23.159Z,4.13
2022-10-24T17:03:49.775Z,7.13
2022-10-24T17:06:16.344Z,4.77
2022-10-24T17:08:43.333Z,4.63
2022-10-24T17:11:32.279Z,4.67
2022-10-24T17:13:58.028Z,4.83
2022-10-24T17:16:24.734Z,4.63
2022-10-24T17:19:05.420Z,3.93
2022-10-24T17:21:39.053Z,5.83
2022-10-24T17:24:10.303Z,5.53
2022-10-24T17:26:36.957Z,6.83
2022-10-24T17:29:04.735Z,4.97
2022-10-24T17:31:31.520Z,4.63
2022-10-24T17:33:58.343Z,1.83
2022-10-24T17:36:28.124Z,4.73
2022-10-24T17:39:07.616Z,6.30
2022-10-24T17:41:40.738Z,3.80
2022-10-24T17:44:14.298Z,3.17
2022-10-24T17:46:40.998Z,3.53
2022-10-24T17:49:10.540Z,4.67
2022-10-24T17:51:39.866Z,5.97
2022-10-24T17:54:09.088Z,5.67
2022-10-24T17:56:35.786Z,4.43
2022-10-24T17:59:02.543Z,4.00
2022-10-24T18:01:29.250Z,5.77
2022-10-24T18:03:55.902Z,5.17
2022-10-24T18:06:22.484Z,6.60
2022-10-24T18:08:53.355Z,5.73
2022-10-24T18:11:19.932Z,7.53
2022-10-24T18:13:46.421Z,9.37
2022-10-24T18:16:15.709Z,10.73
2022-10-24T18:18:43.911Z,14.20
2022-10-24T18:23:46.715Z,10.20
2022-10-24T18:26:17.838Z,7.87
2022-10-24T18:28:46.730Z,7.80
2022-10-24T18:31:15.946Z,8.37
2022-10-24T18:33:43.255Z,10.93
2022-10-24T18:36:25.657Z,7.87
2022-10-24T18:38:59.094Z,8.97
2022-10-24T18:41:37.572Z,10.80
2022-10-24T18:44:23.213Z,9.53
2022-10-24T18:46:51.815Z,9.93
2022-10-24T18:49:19.276Z,7.60
2022-10-24T18:52:10.439Z,8.63
2022-10-24T18:54:53.649Z,10.80
2022-10-24T18:57:27.090Z,9.07
2022-10-24T18:59:54.815Z,13.33
2022-10-24T19:05:25.010Z,8.27
2022-10-24T19:07:51.936Z,5.90
2022-10-24T19:10:27.073Z,10.27
2022-10-24T19:12:57.413Z,11.93
2022-10-24T19:15:24.460Z,9.67
2022-10-24T19:17:51.774Z,10.23
2022-10-24T19:20:21.432Z,13.63
2022-10-24T19:22:48.667Z,7.67
2022-10-24T19:25:16.571Z,6.83
2022-10-24T19:27:43.533Z,10.53
2022-10-24T19:30:11.620Z,7.13
2022-10-24T19:32:38.329Z,4.93
2022-10-24T19:35:05.236Z,5.87
2022-10-24T19:37:31.810Z,10.63
2022-10-24T19:39:58.303Z,7.30
2022-10-24T19:42:24.894Z,5.27
2022-10-24T19:44:54.466Z,5.53
2022-10-24T19:47:21.769Z,7.57
2022-10-24T19:49:49.404Z,2.43
2022-10-24T19:52:16.177Z,6.70
2022-10-24T19:54:42.724Z,4.03
2022-10-24T19:57:09.519Z,4.73
2022-10-24T19:59:36.262Z,8.50
2022-10-24T20:02:04.348Z,4.53
2022-10-24T20:04:31.560Z,3.63
2022-10-24T20:06:58.113Z,8.73
2022-10-24T20:09:24.650Z,5.80
2022-10-24T20:11:51.194Z,2.43
2022-10-24T20:14:17.898Z,7.47
2022-10-24T20:16:44.425Z,4.47
2022-10-24T20:19:10.948Z,4.60
2022-10-24T20:21:37.754Z,4.03
2022-10-24T20:24:08.805Z,3.07
2022-10-24T20:26:36.116Z,5.33
2022-10-24T20:29:03.827Z,5.33
2022-10-24T20:31:34.041Z,5.63
2022-10-24T20:34:07.052Z,3.17
2022-10-24T20:36:35.779Z,3.93
2022-10-24T20:39:03.221Z,3.37
2022-10-24T20:41:29.965Z,2.57
2022-10-24T20:43:56.654Z,3.53
2022-10-24T20:46:23.239Z,4.20
2022-10-24T20:48:49.746Z,3.00
2022-10-24T20:51:18.973Z,7.30
2022-10-24T20:53:45.588Z,3.37
2022-10-24T20:56:14.929Z,1.97
2022-10-24T20:58:43.024Z,2.00
2022-10-24T21:01:12.681Z,4.60
2022-10-24T21:03:39.498Z,1.03
2022-10-24T21:06:14.244Z,4.70
2022-10-24T21:08:40.816Z,4.07
2022-10-24T21:11:07.799Z,3.30
2022-10-24T21:13:34.304Z,3.13
2022-10-24T21:16:02.077Z,3.83
2022-10-24T21:18:28.555Z,2.43
2022-10-24T21:20:54.970Z,5.30
2022-10-24T21:23:21.422Z,6.77
2022-10-24T21:25:47.916Z,11.73
2022-10-24T21:28:14.406Z,3.37
2022-10-24T21:30:40.867Z,4.00
2022-10-24T21:33:10.589Z,3.30
2022-10-24T21:35:39.909Z,3.17
2022-10-24T21:38:06.488Z,1.77
2022-10-24T21:40:32.968Z,3.00
2022-10-24T21:43:00.961Z,3.27
2022-10-24T21:45:27.456Z,2.83
2022-10-24T21:47:53.891Z,4.23
2022-10-24T21:50:20.378Z,3.93
2022-10-24T21:52:47.111Z,3.07
2022-10-24T21:55:13.879Z,2.67
2022-10-24T21:57:40.328Z,2.53
2022-10-24T22:00:07.550Z,3.73
2022-10-24T22:02:34.082Z,3.40
2022-10-24T22:05:00.613Z,3.40
2022-10-24T22:09:58.448Z,4.40
2022-10-24T22:12:25.268Z,1.23
2022-10-24T22:14:51.706Z,3.07
2022-10-24T22:17:18.158Z,4.70
2022-10-24T22:19:44.656Z,6.70
2022-10-24T22:22:11.106Z,3.97
2022-10-24T22:24:37.592Z,1.63
2022-10-24T22:27:04.116Z,1.90
2022-10-24T22:29:30.599Z,4.20
2022-10-24T22:31:57.365Z,4.13
2022-10-24T22:34:25.384Z,3.77
2022-10-24T22:37:24.848Z,3.83
2022-10-24T22:39:51.621Z,2.00
2022-10-24T22:42:20.203Z,5.20
2022-10-24T22:44:47.919Z,1.67
2022-10-24T22:48:03.129Z,3.93
2022-10-24T22:50:54.705Z,3.13
2022-10-24T22:53:31.095Z,4.30
2022-10-24T22:56:22.469Z,3.27
2022-10-24T22:58:49.548Z,3.07
2022-10-24T23:01:23.989Z,4.27
2022-10-24T23:04:18.003Z,3.83
2022-10-24T23:06:48.548Z,1.73
2022-10-24T23:09:15.028Z,4.97
2022-10-24T23:11:41.975Z,4.57
2022-10-24T23:14:10.251Z,1.70
2022-10-24T23:16:50.257Z,2.00
2022-10-24T23:19:20.481Z,2.97
2022-10-24T23:21:52.528Z,3.23
2022-10-24T23:24:19.457Z,4.93
2022-10-24T23:26:54.862Z,2.90
2022-10-24T23:29:33.109Z,1.87
2022-10-24T23:32:00.322Z,5.90
2022-10-24T23:34:27.634Z,2.40
2022-10-24T23:37:03.827Z,2.00
2022-10-24T23:39:33.220Z,2.17
2022-10-24T23:42:01.042Z,4.53
2022-10-24T23:44:27.971Z,5.20
2022-10-24T23:47:05.683Z,2.97
2022-10-24T23:49:40.035Z,4.00
2022-10-24T23:52:28.534Z,3.67
2022-10-24T23:54:55.324Z,3.47
2022-10-24T23:57:22.075Z,3.77
2022-10-24T23:59:48.527Z,2.83
